Time;durP1;ratioP1;P1;durP2;ratioP2;P2;SDS_P1;SDS_P2;PMS_P1;PMS_P2;Temp;Humidity;BMP_temperature;BMP_pressure;BME280_temperature;BME280_humidity;BME280_pressure;Samples;Min_cycle;Max_cycle;Signal;HPM_P1;HPM_P2
2024/03/13 00:02:21;;;;;;;8.57;5.20;;;8.70;99.90;;;;;;5022137;28;20482;-73
2024/03/13 00:05:09;;;;;;;6.50;4.90;;;8.80;99.90;;;;;;5019358;28;20531;-73
2024/03/13 00:07:56;;;;;;;6.97;4.70;;;8.70;99.90;;;;;;5019253;28;20614;-74
2024/03/13 00:10:42;;;;;;;6.27;4.50;;;8.80;99.90;;;;;;5022960;28;21013;-75
2024/03/13 00:13:28;;;;;;;5.53;3.90;;;8.80;99.90;;;;;;5021603;28;20947;-73
2024/03/13 00:16:13;;;;;;;6.20;4.30;;;8.80;99.90;;;;;;5026060;28;20444;-74
2024/03/13 00:18:59;;;;;;;6.87;4.50;;;8.70;99.90;;;;;;5019635;28;20454;-73
2024/03/13 00:21:45;;;;;;;6.50;4.37;;;8.80;99.90;;;;;;5021326;28;20455;-73
2024/03/13 00:24:32;;;;;;;6.07;4.20;;;8.80;99.90;;;;;;5019835;28;20447;-73
2024/03/13 00:27:20;;;;;;;8.47;5.07;;;8.80;99.90;;;;;;5022881;28;20766;-73
2024/03/13 00:30:08;;;;;;;6.93;4.40;;;8.80;99.90;;;;;;5018487;28;20460;-75
2024/03/13 00:32:57;;;;;;;7.13;3.90;;;8.80;99.90;;;;;;5021192;28;20986;-72
2024/03/13 00:35:43;;;;;;;4.70;4.20;;;8.70;99.90;;;;;;5026131;28;21078;-72
2024/03/13 00:38:29;;;;;;;6.10;4.13;;;8.70;99.90;;;;;;5024314;28;20767;-72
2024/03/13 00:41:16;;;;;;;8.30;3.57;;;8.60;99.90;;;;;;5022567;28;20517;-71
2024/03/13 00:44:03;;;;;;;5.63;3.67;;;8.60;99.90;;;;;;5025434;28;20498;-72
2024/03/13 00:46:48;;;;;;;7.13;4.10;;;8.70;99.90;;;;;;5024652;28;20574;-72
2024/03/13 00:49:34;;;;;;;30.23;3.77;;;8.70;99.90;;;;;;5024726;28;20479;-72
2024/03/13 00:52:21;;;;;;;5.10;3.57;;;8.70;99.90;;;;;;5017959;28;20439;-72
2024/03/13 00:55:10;;;;;;;5.17;4.03;;;8.70;99.90;;;;;;5021060;28;20478;-72
2024/03/13 00:57:56;;;;;;;4.17;3.30;;;8.60;99.90;;;;;;5021916;28;20460;-72
2024/03/13 01:00:42;;;;;;;5.73;3.77;;;8.60;99.90;;;;;;5019298;28;20534;-72
2024/03/13 01:03:28;;;;;;;7.97;3.60;;;8.60;99.90;;;;;;5024248;28;20446;-72
2024/03/13 01:06:14;;;;;;;6.20;3.40;;;8.70;99.90;;;;;;5024231;28;20447;-73
2024/03/13 01:08:59;;;;;;;4.73;3.43;;;8.70;99.90;;;;;;5024187;28;20482;-72
2024/03/13 01:11:46;;;;;;;4.40;3.40;;;8.70;99.90;;;;;;5025851;28;20517;-72
2024/03/13 01:14:32;;;;;;;6.07;3.60;;;8.70;99.90;;;;;;5026145;28;20447;-72
2024/03/13 01:17:19;;;;;;;4.50;3.20;;;8.70;99.90;;;;;;5024511;28;20579;-73
2024/03/13 01:20:08;;;;;;;4.53;3.67;;;8.80;99.90;;;;;;5025198;28;20554;-72
2024/03/13 01:22:56;;;;;;;10.70;3.30;;;8.80;99.90;;;;;;5027439;28;20821;-71
2024/03/13 01:25:44;;;;;;;4.73;3.30;;;8.80;99.90;;;;;;5020474;28;20509;-72
2024/03/13 01:28:30;;;;;;;5.30;3.67;;;8.80;99.90;;;;;;5030814;28;20529;-71
2024/03/13 01:31:17;;;;;;;5.27;3.90;;;8.80;99.90;;;;;;5031408;28;20507;-71
2024/03/13 01:34:04;;;;;;;5.70;3.33;;;8.80;99.90;;;;;;5024601;28;20477;-70
2024/03/13 01:39:53;;;;;;;3.77;3.27;;;8.80;99.90;;;;;;5026722;28;20498;-72
2024/03/13 01:55:35;;;;;;;4.93;3.20;;;8.80;99.90;;;;;;5025569;28;20456;-74
2024/03/13 01:58:29;;;;;;;4.80;3.20;;;8.80;99.90;;;;;;5024447;28;20844;-71
2024/03/13 02:04:18;;;;;;;4.40;2.87;;;8.80;99.90;;;;;;5027962;28;20467;-72
2024/03/13 02:07:05;;;;;;;4.30;2.40;;;8.80;99.90;;;;;;5025798;28;20960;-72
2024/03/13 02:09:51;;;;;;;3.60;2.73;;;8.70;99.90;;;;;;5025075;28;20642;-72
2024/03/13 02:12:37;;;;;;;4.43;3.20;;;8.70;99.90;;;;;;5025280;28;21862;-72
2024/03/13 02:15:23;;;;;;;5.33;2.40;;;8.70;99.90;;;;;;5023323;28;21134;-72
2024/03/13 02:18:18;;;;;;;6.53;3.03;;;8.70;99.90;;;;;;5023873;28;20547;-72
2024/03/13 02:21:04;;;;;;;4.20;3.27;;;8.70;99.90;;;;;;5025474;28;20833;-71
2024/03/13 02:23:49;;;;;;;6.00;3.50;;;8.70;99.90;;;;;;5025380;28;20452;-72
2024/03/13 02:26:35;;;;;;;5.03;2.47;;;8.70;99.90;;;;;;5010074;28;20611;-72
2024/03/13 02:29:21;;;;;;;4.57;3.33;;;8.70;99.90;;;;;;5009287;28;20498;-72
2024/03/13 02:32:06;;;;;;;5.70;2.90;;;8.60;99.90;;;;;;5011570;28;20426;-72
2024/03/13 02:34:52;;;;;;;3.57;2.87;;;8.70;99.90;;;;;;5010168;28;20449;-72
2024/03/13 02:37:41;;;;;;;3.43;2.40;;;8.70;99.90;;;;;;5001218;28;20462;-72
2024/03/13 02:40:27;;;;;;;3.70;2.00;;;8.70;99.90;;;;;;5007143;28;20473;-72
2024/03/13 02:43:13;;;;;;;3.13;2.10;;;8.70;99.90;;;;;;5010418;28;20668;-73
2024/03/13 02:45:58;;;;;;;3.33;2.30;;;8.60;99.90;;;;;;5001455;28;20533;-72
2024/03/13 02:48:44;;;;;;;4.90;2.77;;;8.70;99.90;;;;;;5003655;28;20609;-72
2024/03/13 02:51:30;;;;;;;4.60;2.17;;;8.70;99.90;;;;;;5000119;28;20971;-71
2024/03/13 02:54:16;;;;;;;5.80;2.27;;;8.70;99.90;;;;;;5010938;28;20447;-73
2024/03/13 02:57:01;;;;;;;2.97;2.20;;;8.70;99.90;;;;;;4999283;28;20491;-73
2024/03/13 02:59:47;;;;;;;3.27;2.60;;;8.80;99.90;;;;;;5000930;28;20526;-72
2024/03/13 03:02:32;;;;;;;3.17;2.40;;;8.80;99.90;;;;;;5010465;28;20533;-75
2024/03/13 03:05:18;;;;;;;4.10;2.87;;;8.80;99.90;;;;;;4999107;28;20490;-72
2024/03/13 03:08:04;;;;;;;2.93;2.13;;;8.80;99.90;;;;;;5001662;28;20454;-72
2024/03/13 03:10:50;;;;;;;4.80;2.13;;;8.80;99.90;;;;;;5010590;28;20486;-71
2024/03/13 03:13:36;;;;;;;3.70;2.10;;;8.80;99.90;;;;;;5009298;28;20463;-72
2024/03/13 03:16:21;;;;;;;2.50;2.30;;;8.80;99.90;;;;;;5010051;28;20456;-70
2024/03/13 03:19:07;;;;;;;3.57;2.40;;;8.80;99.90;;;;;;4998236;28;20462;-71
2024/03/13 03:21:53;;;;;;;5.90;2.87;;;8.80;99.90;;;;;;5008494;28;20844;-69
2024/03/13 03:24:39;;;;;;;4.43;2.60;;;8.80;99.90;;;;;;4998429;28;20555;-71
2024/03/13 03:27:26;;;;;;;4.03;2.60;;;8.70;99.90;;;;;;5001628;28;20446;-71
2024/03/13 03:30:12;;;;;;;4.70;3.13;;;8.80;99.90;;;;;;4995875;28;20478;-72
2024/03/13 03:32:58;;;;;;;2.70;2.20;;;8.80;99.90;;;;;;5005555;28;20449;-71
2024/03/13 03:35:44;;;;;;;3.50;2.30;;;8.80;99.90;;;;;;4998091;28;20453;-72
2024/03/13 03:38:30;;;;;;;3.23;2.50;;;8.80;99.90;;;;;;4999194;28;20442;-72
2024/03/13 03:41:16;;;;;;;3.90;2.83;;;8.80;99.90;;;;;;5000837;28;20446;-72
2024/03/13 03:44:01;;;;;;;3.97;2.93;;;8.80;99.90;;;;;;5002853;28;20447;-72
2024/03/13 03:46:47;;;;;;;4.47;2.80;;;8.80;99.90;;;;;;4999085;28;20534;-72
2024/03/13 03:49:32;;;;;;;4.37;3.27;;;8.80;99.90;;;;;;5000413;28;20450;-72
2024/03/13 03:52:18;;;;;;;4.37;3.50;;;8.80;99.90;;;;;;5009521;28;20736;-72
2024/03/13 03:55:05;;;;;;;3.43;2.70;;;8.90;99.90;;;;;;5000397;28;20426;-72
2024/03/13 03:57:51;;;;;;;4.90;3.23;;;8.90;99.90;;;;;;5005053;28;20447;-72
2024/03/13 04:00:37;;;;;;;5.37;3.07;;;8.90;99.90;;;;;;5008899;28;20478;-72
2024/03/13 04:03:22;;;;;;;5.67;3.10;;;8.90;99.90;;;;;;5012863;28;20454;-72
2024/03/13 04:06:08;;;;;;;3.70;2.63;;;8.90;99.90;;;;;;4998190;28;20499;-72
2024/03/13 04:08:54;;;;;;;4.23;3.20;;;8.90;99.90;;;;;;5007021;28;21728;-72
2024/03/13 04:11:39;;;;;;;8.23;3.33;;;8.90;99.90;;;;;;5002368;28;20674;-72
2024/03/13 04:14:25;;;;;;;5.40;3.73;;;8.80;99.90;;;;;;5002798;28;20545;-72
2024/03/13 04:17:10;;;;;;;4.73;3.37;;;8.80;99.90;;;;;;5008333;28;20544;-72
2024/03/13 04:19:56;;;;;;;6.60;4.33;;;8.90;99.90;;;;;;4998731;28;20471;-72
2024/03/13 04:22:42;;;;;;;11.33;3.63;;;8.80;99.90;;;;;;5009925;28;20604;-71
2024/03/13 04:25:27;;;;;;;5.33;4.20;;;8.70;99.90;;;;;;5006546;28;20809;-72
2024/03/13 04:28:13;;;;;;;5.03;3.73;;;8.80;99.90;;;;;;5010435;28;20475;-72
2024/03/13 04:31:01;;;;;;;6.27;4.60;;;8.80;99.90;;;;;;5000309;28;20808;-72
2024/03/13 04:33:46;;;;;;;5.37;4.47;;;8.80;99.90;;;;;;5007019;28;20591;-72
2024/03/13 04:36:33;;;;;;;7.47;4.70;;;8.70;99.90;;;;;;4997012;28;21063;-72
2024/03/13 04:39:19;;;;;;;7.37;4.50;;;8.70;99.90;;;;;;4997612;28;20479;-72
2024/03/13 04:42:05;;;;;;;7.50;4.60;;;8.80;99.90;;;;;;5001322;28;20534;-72
2024/03/13 04:44:51;;;;;;;7.20;5.20;;;8.80;99.90;;;;;;5013833;28;20816;-72
2024/03/13 04:47:36;;;;;;;8.30;5.00;;;8.70;99.90;;;;;;5005707;28;20450;-72
2024/03/13 04:50:23;;;;;;;5.80;4.47;;;8.80;99.90;;;;;;5002789;28;20479;-73
2024/03/13 04:53:08;;;;;;;5.43;4.40;;;8.80;99.90;;;;;;5014520;28;20478;-72
2024/03/13 04:55:54;;;;;;;7.60;4.30;;;8.80;99.90;;;;;;5015043;28;20972;-72
2024/03/13 04:58:39;;;;;;;5.73;4.13;;;8.80;99.90;;;;;;5001352;28;20428;-72
2024/03/13 05:01:25;;;;;;;6.53;4.20;;;8.80;99.90;;;;;;5013093;28;20429;-72
2024/03/13 05:04:11;;;;;;;4.67;3.83;;;8.80;99.90;;;;;;5004878;28;20459;-73
2024/03/13 05:07:01;;;;;;;6.97;5.00;;;8.80;99.90;;;;;;5006448;28;20471;-72
2024/03/13 05:09:49;;;;;;;10.33;4.90;;;8.80;99.90;;;;;;5004761;28;20462;-72
2024/03/13 05:12:36;;;;;;;7.30;5.40;;;8.80;99.90;;;;;;5001536;28;20539;-73
2024/03/13 05:15:22;;;;;;;8.50;5.27;;;8.70;99.90;;;;;;5004705;28;23258;-72
2024/03/13 05:18:09;;;;;;;8.93;5.30;;;8.70;99.90;;;;;;5011529;28;20896;-72
2024/03/13 05:20:55;;;;;;;6.83;4.87;;;8.80;99.90;;;;;;5010432;28;20451;-72
2024/03/13 05:23:40;;;;;;;7.07;4.50;;;8.80;99.90;;;;;;4999418;28;20425;-73
2024/03/13 05:26:27;;;;;;;7.70;5.53;;;8.70;99.90;;;;;;5004370;28;20816;-72
2024/03/13 05:29:12;;;;;;;8.23;4.90;;;8.70;99.90;;;;;;5012153;28;20529;-72
2024/03/13 05:31:59;;;;;;;7.97;5.13;;;8.70;99.90;;;;;;5004864;28;20446;-73
2024/03/13 05:34:45;;;;;;;7.60;5.40;;;8.70;99.90;;;;;;5010434;28;20442;-72
2024/03/13 05:37:31;;;;;;;6.17;4.77;;;8.70;99.90;;;;;;4998932;28;20457;-72
2024/03/13 05:40:17;;;;;;;7.70;5.20;;;8.80;99.90;;;;;;5011984;28;20452;-73
2024/03/13 05:43:03;;;;;;;7.27;5.20;;;8.70;99.90;;;;;;4997124;28;20447;-72
2024/03/13 05:45:49;;;;;;;9.30;4.83;;;8.70;99.90;;;;;;5005291;28;20429;-73
2024/03/13 05:48:35;;;;;;;9.10;5.23;;;8.70;99.90;;;;;;5002424;28;20454;-73
2024/03/13 05:51:20;;;;;;;6.67;4.77;;;8.70;99.90;;;;;;5000801;28;20462;-72
2024/03/13 05:54:07;;;;;;;5.77;3.93;;;8.70;99.90;;;;;;5005681;28;20428;-73
2024/03/13 05:56:54;;;;;;;7.13;4.47;;;8.70;99.90;;;;;;5013409;28;20931;-72
2024/03/13 05:59:39;;;;;;;10.33;5.23;;;8.80;99.90;;;;;;5007497;28;21004;-72
2024/03/13 06:02:25;;;;;;;7.97;5.23;;;8.80;99.90;;;;;;5001448;28;21212;-72
2024/03/13 06:05:14;;;;;;;7.37;4.77;;;8.80;99.90;;;;;;5003995;28;20553;-72
2024/03/13 06:08:00;;;;;;;9.03;5.57;;;8.80;99.90;;;;;;5001763;28;20422;-73
2024/03/13 06:10:46;;;;;;;10.83;5.20;;;8.80;99.90;;;;;;5008865;28;20480;-72
2024/03/13 06:13:32;;;;;;;5.23;4.37;;;8.80;99.90;;;;;;5000607;28;20593;-73
2024/03/13 06:16:18;;;;;;;9.63;5.00;;;8.80;99.90;;;;;;5001395;28;20509;-72
2024/03/13 06:19:04;;;;;;;7.53;4.03;;;8.80;99.90;;;;;;5010810;28;20630;-73
2024/03/13 06:21:50;;;;;;;7.57;5.17;;;8.80;99.90;;;;;;5011095;28;20470;-73
2024/03/13 06:24:35;;;;;;;8.17;5.90;;;8.80;99.90;;;;;;4999902;28;20977;-72
2024/03/13 06:27:27;;;;;;;7.37;4.03;;;8.90;99.90;;;;;;5002941;28;20460;-72
2024/03/13 06:30:12;;;;;;;5.57;4.00;;;8.90;99.90;;;;;;5014302;28;20922;-72
2024/03/13 06:32:58;;;;;;;5.30;4.20;;;8.90;99.90;;;;;;5003462;28;20421;-73
2024/03/13 06:35:43;;;;;;;7.67;5.53;;;8.90;99.90;;;;;;5008754;28;20421;-72
2024/03/13 06:38:29;;;;;;;8.10;5.47;;;8.90;99.90;;;;;;5003922;28;20786;-72
2024/03/13 06:41:14;;;;;;;6.73;4.77;;;8.90;99.90;;;;;;5012039;28;20954;-72
2024/03/13 06:44:01;;;;;;;7.60;5.20;;;8.90;99.90;;;;;;5003417;28;20425;-72
2024/03/13 06:46:47;;;;;;;6.67;5.07;;;8.90;99.90;;;;;;5002936;28;20463;-73
2024/03/13 06:49:33;;;;;;;8.07;5.67;;;8.90;99.90;;;;;;4998913;28;20475;-73
2024/03/13 06:52:18;;;;;;;8.77;5.60;;;9.00;99.90;;;;;;5012229;28;20441;-73
2024/03/13 06:55:04;;;;;;;5.60;4.27;;;9.00;99.90;;;;;;5005124;28;20447;-72
2024/03/13 06:57:50;;;;;;;7.43;5.10;;;9.10;99.90;;;;;;5011653;28;20819;-72
2024/03/13 07:00:36;;;;;;;8.83;4.80;;;9.10;99.90;;;;;;4996076;28;20513;-72
2024/03/13 07:03:23;;;;;;;6.50;5.07;;;9.20;99.90;;;;;;5012292;28;20455;-72
2024/03/13 07:06:10;;;;;;;6.80;5.20;;;9.30;99.90;;;;;;5003379;28;20429;-72
2024/03/13 07:08:55;;;;;;;8.40;5.43;;;9.20;99.90;;;;;;5002455;28;20630;-72
2024/03/13 07:11:41;;;;;;;9.43;5.17;;;9.20;99.90;;;;;;4998685;28;20557;-72
2024/03/13 07:14:27;;;;;;;6.60;5.23;;;9.20;99.90;;;;;;5009490;28;20974;-72
2024/03/13 07:17:12;;;;;;;6.80;4.93;;;9.30;99.90;;;;;;5001637;28;20952;-72
2024/03/13 07:19:58;;;;;;;6.47;4.70;;;9.30;99.90;;;;;;5001545;28;20922;-72
2024/03/13 07:22:43;;;;;;;7.07;5.70;;;9.30;99.90;;;;;;5008155;28;20426;-72
2024/03/13 07:25:29;;;;;;;6.90;4.53;;;9.40;99.90;;;;;;5013284;28;20784;-72
2024/03/13 07:28:15;;;;;;;5.67;4.43;;;9.40;99.90;;;;;;5004083;28;20460;-72
2024/03/13 07:31:00;;;;;;;6.60;4.30;;;9.40;99.90;;;;;;5012731;28;20494;-72
2024/03/13 07:33:46;;;;;;;5.60;4.03;;;9.50;99.90;;;;;;5005479;28;20537;-72
2024/03/13 07:36:31;;;;;;;5.87;3.97;;;9.60;99.90;;;;;;5012080;28;20502;-72
2024/03/13 07:39:17;;;;;;;6.20;4.53;;;9.60;99.90;;;;;;4998537;28;20581;-72
2024/03/13 07:42:02;;;;;;;5.57;4.37;;;9.60;99.90;;;;;;5000129;28;20425;-72
2024/03/13 07:44:50;;;;;;;4.63;3.97;;;9.60;99.90;;;;;;5002225;28;20821;-73
2024/03/13 07:47:36;;;;;;;6.20;4.40;;;9.60;99.90;;;;;;4998793;28;20451;-72
2024/03/13 07:50:23;;;;;;;5.47;3.80;;;9.60;99.90;;;;;;4993896;28;20458;-72
2024/03/13 07:53:08;;;;;;;4.90;4.10;;;9.60;99.90;;;;;;5006699;28;20567;-72
2024/03/13 07:55:54;;;;;;;3.97;3.20;;;9.60;99.90;;;;;;4999684;28;20459;-72
2024/03/13 07:58:40;;;;;;;5.13;3.47;;;9.70;99.90;;;;;;4996077;28;20469;-72
2024/03/13 08:01:25;;;;;;;7.30;3.50;;;9.70;99.90;;;;;;4997538;28;20977;-72
2024/03/13 08:04:11;;;;;;;5.07;3.23;;;9.70;99.90;;;;;;5011304;28;21224;-72
2024/03/13 08:06:58;;;;;;;8.70;3.80;;;9.80;99.90;;;;;;4999057;28;21041;-72
2024/03/13 08:09:44;;;;;;;4.20;3.17;;;9.70;99.90;;;;;;4999362;28;20499;-72
2024/03/13 08:12:30;;;;;;;4.57;3.63;;;9.70;99.90;;;;;;4994746;28;20454;-72
2024/03/13 08:15:16;;;;;;;3.80;2.70;;;9.70;99.90;;;;;;5009024;28;20546;-72
2024/03/13 08:18:01;;;;;;;4.60;2.93;;;9.70;99.90;;;;;;5001691;28;20574;-72
2024/03/13 08:20:51;;;;;;;6.60;3.70;;;9.70;99.90;;;;;;5007153;28;20463;-72
2024/03/13 08:23:36;;;;;;;4.47;2.97;;;9.70;99.90;;;;;;5000021;28;20530;-72
2024/03/13 08:26:22;;;;;;;5.53;3.43;;;9.70;99.90;;;;;;5009362;28;20830;-72
2024/03/13 08:29:08;;;;;;;4.67;3.03;;;9.80;99.90;;;;;;5010006;28;20701;-73
2024/03/13 08:32:00;;;;;;;4.70;3.27;;;9.80;99.90;;;;;;5010638;28;20466;-72
2024/03/13 08:34:46;;;;;;;4.20;2.87;;;9.80;99.90;;;;;;5000911;28;20428;-72
2024/03/13 08:37:32;;;;;;;5.53;3.40;;;9.80;99.90;;;;;;5010273;28;20461;-72
2024/03/13 08:40:17;;;;;;;4.53;3.20;;;9.90;99.90;;;;;;5012756;28;20487;-72
2024/03/13 08:43:03;;;;;;;3.67;2.87;;;9.90;99.90;;;;;;5002795;28;20450;-72
2024/03/13 08:45:48;;;;;;;5.43;3.37;;;10.00;99.90;;;;;;4993988;28;20463;-73
2024/03/13 08:48:34;;;;;;;5.60;3.20;;;10.00;99.90;;;;;;4997472;28;20448;-72
2024/03/13 08:51:19;;;;;;;4.87;3.00;;;10.00;99.90;;;;;;5009820;28;20467;-72
2024/03/13 08:54:06;;;;;;;6.47;3.50;;;10.10;99.90;;;;;;5007153;28;20564;-72
2024/03/13 08:56:52;;;;;;;3.60;2.53;;;10.20;99.90;;;;;;4998357;28;20962;-72
2024/03/13 08:59:37;;;;;;;3.73;2.80;;;10.30;99.90;;;;;;5011236;28;20471;-72
2024/03/13 09:02:24;;;;;;;5.60;2.60;;;10.30;99.90;;;;;;4998206;28;20428;-72
2024/03/13 09:05:10;;;;;;;5.17;2.87;;;10.30;99.90;;;;;;5001073;28;20926;-72
2024/03/13 09:07:56;;;;;;;3.73;2.63;;;10.40;99.90;;;;;;5013463;28;20434;-72
2024/03/13 09:10:41;;;;;;;4.37;3.00;;;10.30;99.90;;;;;;4994722;28;21012;-72
2024/03/13 09:13:27;;;;;;;11.33;2.30;;;10.30;99.90;;;;;;5003978;28;20457;-72
2024/03/13 09:16:14;;;;;;;3.10;2.33;;;10.30;99.90;;;;;;4999779;28;20440;-72
2024/03/13 09:18:59;;;;;;;3.03;2.13;;;10.40;99.90;;;;;;5016323;28;21178;-72
2024/03/13 09:21:47;;;;;;;3.50;2.30;;;10.30;99.90;;;;;;5002432;28;20421;-72
2024/03/13 09:24:33;;;;;;;3.20;2.20;;;10.40;99.90;;;;;;4999890;28;20470;-72
2024/03/13 09:27:19;;;;;;;3.30;1.90;;;10.40;99.90;;;;;;4994313;28;20455;-72
2024/03/13 09:30:06;;;;;;;2.63;1.90;;;10.40;99.90;;;;;;5000895;28;20461;-73
2024/03/13 09:32:52;;;;;;;4.50;2.00;;;10.40;99.90;;;;;;4994936;28;20434;-72
2024/03/13 09:35:38;;;;;;;2.90;2.00;;;10.40;99.90;;;;;;5001149;28;20800;-72
2024/03/13 09:38:25;;;;;;;2.83;1.80;;;10.50;99.90;;;;;;4999228;28;20438;-72
2024/03/13 09:41:11;;;;;;;2.60;1.60;;;10.50;99.90;;;;;;5001472;28;20463;-72
2024/03/13 09:43:57;;;;;;;8.10;1.93;;;10.50;99.90;;;;;;5001895;28;20824;-72
2024/03/13 09:46:43;;;;;;;2.60;1.83;;;10.50;99.90;;;;;;5000803;28;20455;-72
2024/03/13 09:49:28;;;;;;;2.80;1.73;;;10.50;99.90;;;;;;5014266;28;20465;-72
2024/03/13 09:52:15;;;;;;;3.77;2.17;;;10.50;99.90;;;;;;4995173;28;20972;-72
2024/03/13 09:55:01;;;;;;;2.70;1.50;;;10.50;99.90;;;;;;5012596;28;20433;-72
2024/03/13 09:57:48;;;;;;;5.10;1.40;;;10.50;99.90;;;;;;5008360;28;20818;-72
2024/03/13 10:00:33;;;;;;;3.13;1.70;;;10.50;99.90;;;;;;5010331;28;20450;-72
2024/03/13 10:03:19;;;;;;;2.90;1.73;;;10.60;99.90;;;;;;4998276;28;20569;-72
2024/03/13 10:06:05;;;;;;;2.63;1.60;;;10.60;99.90;;;;;;5010341;28;20489;-72
2024/03/13 10:08:51;;;;;;;3.67;2.60;;;10.70;99.90;;;;;;5008887;28;20997;-72
2024/03/13 10:11:37;;;;;;;3.23;2.10;;;10.70;99.90;;;;;;5004112;28;21051;-72
2024/03/13 10:14:22;;;;;;;2.90;1.70;;;10.70;99.90;;;;;;5012830;28;20933;-72
2024/03/13 10:17:09;;;;;;;3.50;2.07;;;10.60;99.90;;;;;;5001106;28;20843;-72
2024/03/13 10:19:55;;;;;;;2.20;1.40;;;10.70;99.90;;;;;;5001786;28;21025;-72
2024/03/13 10:22:41;;;;;;;3.30;1.60;;;10.70;99.90;;;;;;5010024;28;20934;-72
2024/03/13 10:25:29;;;;;;;2.60;1.50;;;10.80;99.90;;;;;;5005537;28;20521;-72
2024/03/13 10:28:18;;;;;;;2.03;1.47;;;10.90;99.90;;;;;;5000362;28;20459;-72
2024/03/13 10:31:03;;;;;;;2.67;1.90;;;10.90;99.90;;;;;;5008271;28;20471;-72
2024/03/13 10:33:52;;;;;;;3.40;2.00;;;11.00;99.90;;;;;;5005754;28;20478;-72
2024/03/13 10:36:39;;;;;;;3.07;2.10;;;11.00;99.90;;;;;;5013777;28;21137;-72
2024/03/13 10:39:27;;;;;;;2.30;1.80;;;11.00;99.90;;;;;;5010034;28;20488;-72
2024/03/13 10:42:12;;;;;;;4.53;2.10;;;11.10;99.90;;;;;;5002873;28;20590;-72
2024/03/13 10:44:58;;;;;;;3.47;1.97;;;11.10;99.90;;;;;;4999422;28;20438;-72
2024/03/13 10:47:46;;;;;;;2.50;1.70;;;11.20;99.90;;;;;;5004390;28;21010;-72
2024/03/13 10:50:32;;;;;;;2.67;1.60;;;11.30;99.90;;;;;;4997129;28;20479;-72
2024/03/13 10:53:19;;;;;;;3.07;1.70;;;11.30;99.90;;;;;;5001963;28;20573;-72
2024/03/13 10:56:05;;;;;;;3.20;1.93;;;11.30;99.90;;;;;;5010286;28;20441;-72
2024/03/13 10:58:51;;;;;;;2.43;1.53;;;11.30;99.90;;;;;;5004023;28;20470;-72
2024/03/13 11:01:37;;;;;;;2.27;1.43;;;11.20;99.90;;;;;;5001532;28;20820;-72
2024/03/13 11:04:23;;;;;;;2.63;1.60;;;11.20;99.90;;;;;;4997549;28;20430;-72
2024/03/13 11:07:12;;;;;;;3.20;1.63;;;11.30;99.90;;;;;;5010599;28;20450;-72
2024/03/13 11:09:57;;;;;;;4.00;2.60;;;11.30;99.90;;;;;;5004417;28;20462;-72
2024/03/13 11:12:43;;;;;;;6.23;2.10;;;11.30;99.90;;;;;;4998423;28;20834;-72
2024/03/13 11:15:29;;;;;;;4.23;2.10;;;11.40;99.90;;;;;;5004317;28;20777;-73
2024/03/13 11:18:16;;;;;;;7.13;2.70;;;11.40;99.90;;;;;;5003326;28;20452;-72
2024/03/13 11:21:02;;;;;;;4.00;3.00;;;11.40;99.90;;;;;;5002151;28;20498;-72
2024/03/13 11:23:48;;;;;;;4.20;3.03;;;11.40;99.90;;;;;;5007812;28;20410;-72
2024/03/13 11:26:34;;;;;;;6.50;2.73;;;11.40;99.90;;;;;;5001419;28;20533;-72
2024/03/13 11:29:21;;;;;;;5.83;3.80;;;11.40;99.90;;;;;;4998664;28;20463;-72
2024/03/13 11:32:08;;;;;;;6.00;2.97;;;11.50;99.90;;;;;;5011633;28;20446;-72
2024/03/13 11:34:54;;;;;;;4.97;3.63;;;11.50;99.90;;;;;;5011810;28;20439;-72
2024/03/13 11:37:40;;;;;;;3.70;2.87;;;11.60;99.90;;;;;;5005722;28;20410;-72
2024/03/13 11:40:26;;;;;;;5.77;3.83;;;11.50;99.90;;;;;;5000978;28;20956;-72
2024/03/13 11:43:11;;;;;;;6.37;5.10;;;11.50;99.90;;;;;;5002258;28;21081;-72
2024/03/13 11:45:57;;;;;;;5.80;5.20;;;11.50;99.90;;;;;;4999963;28;20441;-72
2024/03/13 11:48:42;;;;;;;5.77;4.70;;;11.60;99.90;;;;;;5002802;28;20456;-72
2024/03/13 11:51:30;;;;;;;7.67;5.93;;;11.60;99.90;;;;;;5001853;28;20450;-72
2024/03/13 11:54:17;;;;;;;9.03;6.60;;;11.70;99.90;;;;;;5007758;28;21095;-72
2024/03/13 11:57:04;;;;;;;9.50;7.70;;;11.70;99.90;;;;;;5009493;28;20438;-72
2024/03/13 11:59:51;;;;;;;7.77;6.97;;;11.70;99.90;;;;;;5013324;28;20456;-72
2024/03/13 12:02:40;;;;;;;10.20;8.43;;;11.80;99.90;;;;;;5002339;28;20474;-72
2024/03/13 12:05:32;;;;;;;14.33;8.67;;;11.80;99.90;;;;;;5000389;28;20491;-72
2024/03/13 12:08:18;;;;;;;12.07;9.33;;;11.80;99.90;;;;;;4997789;28;20780;-73
2024/03/13 12:11:04;;;;;;;9.07;8.10;;;11.80;99.90;;;;;;4995781;28;20475;-73
2024/03/13 12:13:50;;;;;;;13.63;9.33;;;11.80;99.90;;;;;;5000313;28;20629;-72
2024/03/13 12:16:35;;;;;;;12.23;9.90;;;11.80;99.90;;;;;;5001285;28;20444;-72
2024/03/13 12:19:22;;;;;;;10.63;9.50;;;11.80;99.90;;;;;;5000148;28;20535;-72
2024/03/13 12:22:08;;;;;;;13.50;9.37;;;11.80;99.90;;;;;;5008211;28;20534;-72
2024/03/13 12:24:53;;;;;;;12.70;9.53;;;11.80;99.90;;;;;;4998844;28;20441;-72
2024/03/13 12:27:44;;;;;;;13.80;9.57;;;11.80;99.90;;;;;;4998679;28;20431;-72
2024/03/13 12:30:31;;;;;;;13.50;9.87;;;11.80;99.90;;;;;;4995648;28;20484;-72
2024/03/13 12:33:18;;;;;;;14.73;10.37;;;11.80;99.90;;;;;;5000636;28;20553;-72
2024/03/13 12:36:06;;;;;;;12.90;9.03;;;11.90;99.90;;;;;;5001487;28;20417;-72
2024/03/13 12:38:53;;;;;;;11.50;9.30;;;11.90;99.90;;;;;;4999937;28;20458;-72
2024/03/13 12:41:38;;;;;;;12.27;10.00;;;12.00;99.90;;;;;;4998561;28;20447;-72
2024/03/13 12:44:25;;;;;;;11.53;9.93;;;12.00;99.90;;;;;;4994765;28;20553;-73
2024/03/13 12:47:12;;;;;;;11.23;10.10;;;12.00;99.90;;;;;;4998637;28;20430;-72
2024/03/13 12:49:58;;;;;;;11.57;9.90;;;12.10;99.90;;;;;;4994276;28;21033;-72
2024/03/13 12:52:44;;;;;;;11.23;9.30;;;12.10;99.90;;;;;;4999888;28;20554;-72
2024/03/13 12:55:30;;;;;;;9.37;8.23;;;12.10;99.90;;;;;;5000557;28;20776;-72
2024/03/13 12:58:17;;;;;;;9.77;8.37;;;12.10;99.90;;;;;;5001222;28;20429;-72
2024/03/13 13:01:04;;;;;;;10.67;9.57;;;12.00;99.90;;;;;;5009635;28;20443;-73
2024/03/13 13:03:50;;;;;;;13.60;9.37;;;12.00;99.90;;;;;;5004990;28;20550;-72
2024/03/13 13:06:35;;;;;;;10.63;9.53;;;12.00;99.90;;;;;;5003025;28;20521;-72
2024/03/13 13:09:22;;;;;;;9.70;8.67;;;12.00;99.90;;;;;;5007955;28;20616;-72
2024/03/13 13:12:12;;;;;;;9.87;8.87;;;11.90;99.90;;;;;;5004907;28;20449;-72
2024/03/13 13:14:58;;;;;;;11.80;9.80;;;11.90;99.90;;;;;;5002901;28;21023;-72
2024/03/13 13:17:44;;;;;;;9.77;8.73;;;11.90;99.90;;;;;;5004315;28;20481;-72
2024/03/13 13:20:33;;;;;;;14.30;10.80;;;12.00;99.90;;;;;;4998429;28;20536;-72
2024/03/13 13:23:20;;;;;;;11.53;9.83;;;12.00;99.90;;;;;;5006477;28;20529;-72
2024/03/13 13:26:06;;;;;;;11.77;9.00;;;12.00;99.90;;;;;;5013078;28;21176;-72
2024/03/13 13:28:51;;;;;;;10.30;8.67;;;12.10;99.90;;;;;;5012019;28;20475;-72
2024/03/13 13:31:37;;;;;;;13.83;11.60;;;12.10;99.90;;;;;;5002200;28;20932;-72
2024/03/13 13:34:22;;;;;;;14.37;12.97;;;12.10;99.90;;;;;;5004938;28;20460;-72
2024/03/13 13:37:09;;;;;;;13.50;12.10;;;12.10;99.90;;;;;;4998239;28;20447;-72
2024/03/13 13:39:55;;;;;;;13.97;12.50;;;12.10;99.90;;;;;;5000840;28;20502;-72
2024/03/13 13:42:41;;;;;;;14.27;12.77;;;12.10;99.90;;;;;;5002734;28;20455;-72
2024/03/13 13:45:27;;;;;;;14.10;12.40;;;12.10;99.90;;;;;;5006406;28;20914;-72
2024/03/13 13:48:19;;;;;;;14.73;13.17;;;12.20;99.90;;;;;;5002883;28;20452;-72
2024/03/13 13:51:05;;;;;;;13.90;12.50;;;12.20;99.90;;;;;;5006939;28;21364;-72
2024/03/13 13:53:51;;;;;;;12.87;11.43;;;12.20;99.90;;;;;;5000847;28;20456;-72
2024/03/13 13:56:37;;;;;;;11.00;9.87;;;12.30;99.90;;;;;;4998363;28;20449;-72
2024/03/13 13:59:23;;;;;;;10.27;9.17;;;12.20;99.90;;;;;;5000768;28;21008;-72
2024/03/13 14:02:11;;;;;;;14.77;9.33;;;12.20;99.90;;;;;;4999194;28;20443;-72
2024/03/13 14:04:56;;;;;;;11.40;9.53;;;12.30;99.90;;;;;;5012667;28;20456;-72
2024/03/13 14:07:42;;;;;;;10.37;9.27;;;12.30;99.90;;;;;;4999587;28;20467;-72
2024/03/13 14:10:28;;;;;;;10.90;8.80;;;12.20;99.90;;;;;;5014282;28;20478;-72
2024/03/13 14:13:15;;;;;;;12.87;9.90;;;12.30;99.90;;;;;;5000356;28;21957;-72
2024/03/13 14:16:01;;;;;;;9.90;8.90;;;12.30;99.90;;;;;;4999121;28;20497;-72
2024/03/13 14:18:47;;;;;;;10.17;8.70;;;12.30;99.90;;;;;;5014548;28;20445;-72
2024/03/13 14:21:32;;;;;;;11.70;9.60;;;12.30;99.90;;;;;;5002540;28;20539;-72
2024/03/13 14:24:19;;;;;;;12.33;9.10;;;12.30;99.90;;;;;;5000915;28;20460;-72
2024/03/13 14:27:05;;;;;;;10.93;8.17;;;12.40;99.90;;;;;;4998980;28;20534;-72
2024/03/13 14:29:51;;;;;;;9.20;8.10;;;12.40;99.90;;;;;;4999967;28;20536;-72
2024/03/13 14:32:36;;;;;;;11.73;9.03;;;12.30;99.90;;;;;;5013934;28;20610;-72
2024/03/13 14:35:22;;;;;;;8.87;7.93;;;12.30;99.90;;;;;;5002174;28;20949;-72
2024/03/13 14:38:07;;;;;;;11.77;8.00;;;12.30;99.90;;;;;;4998875;28;20427;-72
2024/03/13 14:40:53;;;;;;;11.20;8.30;;;12.30;99.90;;;;;;5011984;28;20866;-72
2024/03/13 14:43:39;;;;;;;8.20;6.60;;;12.20;99.90;;;;;;5011022;28;20424;-72
2024/03/13 14:46:25;;;;;;;7.40;5.53;;;12.20;99.90;;;;;;5001377;28;20451;-72
2024/03/13 14:49:13;;;;;;;7.07;5.50;;;12.20;99.90;;;;;;5013252;28;20881;-72